Aldan, Pennsylvania
Current Conditions -  °F | °C
As of 5:54 AM on Sunday 21 Dec 2014 (Local Time) from KPHL Reporting Station
Broken Clouds Broken Clouds  
Wind Chill: 27°   Ceiling: 12000
Heat Index: 32°   Visibility: 10mi
Dew Point: 22°   Wind: 5mph
Humidity: 66%   Direction: 310°NW
Pressure: 30.32"   Gusts: NA
Location:  39.9228°N, 75.2984°W
Report Text: KPHL 211054Z 31004KT 10SM FEW035 FEW085 BKN120 00/M06 A3032 RMK AO2 SLP266 T00001056
Loading
Personal Weather Stations






























Interactive Weather Map New forecast layout! Learn more

10-Day Weather Forecast

Advertisements
Track Severe Weather on mobile